This is the latest recevied weather packets stored in our database for station/object EA1IOS-11. If no packets are shown the sender has not sent any weather packets the latest 10 day(s).
| Time | Temp. | Humidity | Pressure | Rain* | Wind** | Luminosity | Snow |
|---|---|---|---|---|---|---|---|
| 1778035856 | 11.67° C | 86% | 1015.8 hPa | 0 mm | - | - | - |
| 1778034032 | 11.67° C | 87% | 1015.9 hPa | 0 mm | - | - | - |
| 1778029836 | 11.67° C | 88% | 1016.4 hPa | 0 mm | - | - | - |
| 1778029231 | 11.67° C | 88% | 1016.5 hPa | 0 mm | - | - | - |
| 1778027775 | 12.22° C | 87% | 1016.7 hPa | 0 mm | - | - | - |
| 1778026518 | 12.22° C | 87% | 1016.7 hPa | 0 mm | - | - | - |
| 1778025968 | 12.22° C | 87% | 1016.7 hPa | 0 mm | - | - | - |
| 1778020557 | 12.78° C | 88% | 1017 hPa | 0.25 mm | - | - | - |
| 1778019947 | 12.78° C | 88% | 1017.1 hPa | 0.25 mm | - | - | - |
| 1778019362 | 12.78° C | 88% | 1017 hPa | 0.25 mm | - | - | - |
| 1778018753 | 13.33° C | 87% | 1017 hPa | 0.25 mm | - | - | - |
| 1778016942 | 13.33° C | 84% | 1017.1 hPa | 0 mm | - | - | - |
| 1778012745 | 13.89° C | 82% | 1016.9 hPa | 0 mm | - | - | - |
| 1778009767 | 14.44° C | 76% | 1016.3 hPa | 0 mm | - | - | - |
| 1778009157 | 14.44° C | 76% | 1016.2 hPa | 0 mm | - | - | - |
| 1778006724 | 15.56° C | 72% | 1016.2 hPa | 0 mm | - | - | - |
| 1778004356 | 15.56° C | 75% | 1016 hPa | 0 mm | - | - | - |
| 1778002532 | 15° C | 77% | 1016.1 hPa | 0 mm | - | - | - |
| 1777998334 | 16.67° C | 71% | 1015.8 hPa | 0 mm | - | - | - |
| 1777994747 | 16.11° C | 72% | 1015.8 hPa | 0 mm | - | - | - |
| 1777991159 | 16.11° C | 74% | 1015.8 hPa | 0 mm | - | - | - |
| 1777989335 | 16.11° C | 69% | 1015.6 hPa | 0 mm | - | - | - |
| 1777988732 | 16.11° C | 71% | 1015.5 hPa | 0 mm | - | - | - |
| 1777987571 | 16.67° C | 68% | 1015.5 hPa | 0 mm | - | - | - |
| 1777986967 | 16.67° C | 67% | 1015.6 hPa | 0 mm | - | - | - |
* Rain latest hour (hover to see other rain measurements)
** Current wind speed in m/s (hover to see current wind gust speed)